createdAt,value
2017-09-01T00:02:06.212Z,17.50
2017-09-01T00:04:33.774Z,8.67
2017-09-01T00:07:01.414Z,12.17
2017-09-01T00:09:29.863Z,15.20
2017-09-01T00:11:57.730Z,10.50
2017-09-01T00:14:25.366Z,9.53
2017-09-01T00:16:53.130Z,17.40
2017-09-01T00:19:20.713Z,15.97
2017-09-01T00:21:48.278Z,9.30
2017-09-01T00:24:16.228Z,10.87
2017-09-01T00:26:43.812Z,11.90
2017-09-01T00:29:11.369Z,12.80
2017-09-01T00:31:38.955Z,11.03
2017-09-01T00:34:06.557Z,10.23
2017-09-01T00:36:34.434Z,9.03
2017-09-01T00:39:02.004Z,11.40
2017-09-01T00:41:29.574Z,13.83
2017-09-01T00:43:57.175Z,8.43
2017-09-01T00:46:24.749Z,10.73
2017-09-01T00:48:52.338Z,8.93
2017-09-01T00:51:19.950Z,10.23
2017-09-01T00:53:48.359Z,9.80
2017-09-01T00:56:15.924Z,9.37
2017-09-01T00:58:43.483Z,9.80
2017-09-01T01:01:11.069Z,12.33
2017-09-01T01:03:38.663Z,11.07
2017-09-01T01:06:06.265Z,10.63
2017-09-01T01:08:33.818Z,10.50
2017-09-01T01:11:01.656Z,7.70
2017-09-01T01:13:29.240Z,10.87
2017-09-01T01:15:56.795Z,8.43
2017-09-01T01:18:24.385Z,14.40
2017-09-01T01:20:51.944Z,11.23
2017-09-01T01:23:20.374Z,13.03
2017-09-01T01:25:47.932Z,7.87
2017-09-01T01:28:15.757Z,10.47
2017-09-01T01:30:43.322Z,10.60
2017-09-01T01:33:10.904Z,11.33
2017-09-01T01:35:38.486Z,9.50
2017-09-01T01:38:06.045Z,10.87
2017-09-01T01:40:33.618Z,9.43
2017-09-01T01:43:01.215Z,13.23
2017-09-01T01:45:29.069Z,10.43
2017-09-01T01:47:56.667Z,9.87
2017-09-01T01:50:24.243Z,7.80
2017-09-01T01:52:51.855Z,9.60
2017-09-01T01:55:19.422Z,9.13
2017-09-01T01:57:46.995Z,8.67
2017-09-01T02:00:14.563Z,8.27
2017-09-01T02:02:42.710Z,10.43
2017-09-01T02:05:10.257Z,8.27
2017-09-01T02:07:37.832Z,8.70
2017-09-01T02:10:05.421Z,7.87
2017-09-01T02:12:33.154Z,8.73
2017-09-01T02:15:00.738Z,12.77
2017-09-01T02:17:28.318Z,6.73
2017-09-01T02:19:56.161Z,12.13
2017-09-01T02:22:24.482Z,7.43
2017-09-01T02:24:52.193Z,14.10
2017-09-01T02:27:20.368Z,9.83
2017-09-01T02:29:47.923Z,11.20
2017-09-01T02:32:15.514Z,16.00
2017-09-01T02:34:43.089Z,29.87
2017-09-01T02:37:10.985Z,21.87
2017-09-01T02:39:38.580Z,30.30
2017-09-01T02:42:06.141Z,27.50
2017-09-01T02:44:33.739Z,22.00
2017-09-01T02:47:01.305Z,25.90
2017-09-01T02:49:28.894Z,25.00
2017-09-01T02:51:56.452Z,15.47
2017-09-01T02:54:24.382Z,29.97
2017-09-01T02:56:51.947Z,20.47
2017-09-01T02:59:19.528Z,21.33
2017-09-01T03:01:47.856Z,33.27
2017-09-01T03:04:15.591Z,35.33
2017-09-01T03:06:43.179Z,32.17
2017-09-01T03:09:10.744Z,16.10
2017-09-01T03:11:38.649Z,35.67
2017-09-01T03:14:06.223Z,26.37
2017-09-01T03:16:33.795Z,15.73
2017-09-01T03:19:01.369Z,17.40
2017-09-01T03:21:28.954Z,22.23
2017-09-01T03:23:56.559Z,15.50
2017-09-01T03:26:24.128Z,17.77
2017-09-01T03:28:51.740Z,15.23
2017-09-01T03:31:19.301Z,13.23
2017-09-01T03:33:47.151Z,12.90
2017-09-01T03:36:14.723Z,13.93
2017-09-01T03:38:42.267Z,24.20
2017-09-01T03:41:09.870Z,37.63
2017-09-01T03:43:37.471Z,28.40
2017-09-01T03:46:05.067Z,23.30
2017-09-01T03:48:32.618Z,11.37
2017-09-01T03:51:00.464Z,27.73
2017-09-01T03:53:28.047Z,16.67
2017-09-01T03:55:55.620Z,12.43
2017-09-01T03:58:23.205Z,14.20
2017-09-01T04:00:50.755Z,54.60
2017-09-01T04:03:18.491Z,48.30
2017-09-01T04:05:46.054Z,26.03
2017-09-01T04:08:14.050Z,28.60
2017-09-01T04:10:41.619Z,30.30
2017-09-01T04:13:09.207Z,21.20
2017-09-01T04:15:36.797Z,14.83
2017-09-01T04:18:04.366Z,51.27
2017-09-01T04:20:31.970Z,22.23
2017-09-01T04:22:59.565Z,22.30
2017-09-01T04:25:27.449Z,26.40
2017-09-01T04:27:55.025Z,56.90
2017-09-01T04:30:22.608Z,44.40
2017-09-01T04:32:50.211Z,26.30
2017-09-01T04:35:17.792Z,23.27
2017-09-01T04:37:45.393Z,26.23
2017-09-01T04:40:12.961Z,20.03
2017-09-01T04:42:40.806Z,25.70
2017-09-01T04:45:08.385Z,24.60
2017-09-01T04:47:35.953Z,23.50
2017-09-01T04:50:03.550Z,14.80
2017-09-01T04:52:31.147Z,22.53
2017-09-01T04:54:58.740Z,18.63
2017-09-01T04:57:26.309Z,19.93
2017-09-01T04:59:54.164Z,18.43
2017-09-01T05:02:22.507Z,17.70
2017-09-01T05:04:50.089Z,69.43
2017-09-01T05:07:17.691Z,24.03
2017-09-01T05:09:45.259Z,23.30
2017-09-01T05:12:12.847Z,22.30
2017-09-01T05:14:40.424Z,36.67
2017-09-01T05:17:08.359Z,22.67
2017-09-01T05:19:35.950Z,42.43
2017-09-01T05:22:03.554Z,18.60
2017-09-01T05:24:34.402Z,20.20
2017-09-01T05:29:54.582Z,30.47
2017-09-01T05:32:22.163Z,39.67
2017-09-01T05:34:50.171Z,21.20
2017-09-01T05:37:17.744Z,20.80
2017-09-01T05:39:45.335Z,28.60
2017-09-01T05:42:12.931Z,24.30
2017-09-01T05:44:42.419Z,16.67
2017-09-01T05:47:10.114Z,66.40
2017-09-01T05:49:37.697Z,15.07
2017-09-01T05:52:06.130Z,15.80
2017-09-01T05:54:33.729Z,43.33
2017-09-01T05:57:01.314Z,38.90
2017-09-01T05:59:28.990Z,19.60
2017-09-01T06:01:56.551Z,21.37
2017-09-01T06:04:24.127Z,16.60
2017-09-01T06:06:51.769Z,18.53
2017-09-01T06:09:19.354Z,14.30
2017-09-01T06:11:47.246Z,13.97
2017-09-01T06:14:14.814Z,16.50
2017-09-01T06:16:42.394Z,12.10
2017-09-01T06:19:09.996Z,10.30
2017-09-01T06:21:37.600Z,18.73
2017-09-01T06:24:05.236Z,15.30
2017-09-01T06:26:32.811Z,13.60
2017-09-01T06:29:00.663Z,42.27
2017-09-01T06:31:28.243Z,20.37
2017-09-01T06:33:55.831Z,9.93
2017-09-01T06:36:23.422Z,17.30
2017-09-01T06:38:50.999Z,12.13
2017-09-01T06:41:18.596Z,12.07
2017-09-01T06:43:46.158Z,15.93
2017-09-01T06:46:14.785Z,22.70
2017-09-01T06:48:42.390Z,17.10
2017-09-01T06:51:10.752Z,17.43
2017-09-01T06:53:38.363Z,25.00
2017-09-01T06:56:05.943Z,17.47
2017-09-01T06:58:33.543Z,20.23
2017-09-01T07:01:01.123Z,22.97
2017-09-01T07:03:28.991Z,29.30
2017-09-01T07:05:56.600Z,18.90
2017-09-01T07:08:24.180Z,21.37
2017-09-01T07:10:51.781Z,23.10
2017-09-01T07:13:19.351Z,18.77
2017-09-01T07:15:47.234Z,31.40
2017-09-01T07:18:14.814Z,27.43
2017-09-01T07:20:42.848Z,30.50
2017-09-01T07:23:10.413Z,21.50
2017-09-01T07:25:38.008Z,17.67
2017-09-01T07:28:05.617Z,19.13
2017-09-01T07:30:33.194Z,15.03
2017-09-01T07:33:00.795Z,15.60
2017-09-01T07:35:28.379Z,29.83
2017-09-01T07:37:56.307Z,15.93
2017-09-01T07:40:23.891Z,17.80
2017-09-01T07:42:51.478Z,15.20
2017-09-01T07:45:19.062Z,11.60
2017-09-01T07:47:46.620Z,13.50
2017-09-01T07:50:14.229Z,10.43
2017-09-01T07:52:41.822Z,11.10
2017-09-01T07:55:09.589Z,11.67
2017-09-01T07:57:38.138Z,8.00
2017-09-01T08:00:05.737Z,9.60
2017-09-01T08:02:33.648Z,7.87
2017-09-01T08:05:01.217Z,7.73
2017-09-01T08:07:28.812Z,10.60
2017-09-01T08:09:56.684Z,12.93
2017-09-01T08:12:24.263Z,7.87
2017-09-01T08:14:52.233Z,13.03
2017-09-01T08:17:19.798Z,7.70
2017-09-01T08:19:47.394Z,8.77
2017-09-01T08:22:15.744Z,11.07
2017-09-01T08:24:43.326Z,8.07
2017-09-01T08:27:10.914Z,7.20
2017-09-01T08:29:38.494Z,6.27
2017-09-01T08:32:06.598Z,7.10
2017-09-01T08:34:34.183Z,12.33
2017-09-01T08:37:01.802Z,10.33
2017-09-01T08:39:29.418Z,5.67
2017-09-01T08:41:56.990Z,6.40
2017-09-01T08:44:24.865Z,7.83
2017-09-01T08:46:52.447Z,5.40
2017-09-01T08:49:20.321Z,5.60
2017-09-01T08:51:47.922Z,5.63
2017-09-01T08:54:15.504Z,5.47
2017-09-01T08:56:43.130Z,5.37
2017-09-01T08:59:10.698Z,8.23
2017-09-01T09:01:38.566Z,5.10
2017-09-01T09:04:06.153Z,5.07
2017-09-01T09:06:33.734Z,5.50
2017-09-01T09:09:01.376Z,5.07
2017-09-01T09:11:29.079Z,3.87
2017-09-01T09:13:57.000Z,3.93
2017-09-01T09:16:24.558Z,5.37
2017-09-01T09:18:55.775Z,4.60
2017-09-01T09:21:24.161Z,5.35
2017-09-01T09:23:51.727Z,6.97
2017-09-01T09:26:19.322Z,4.28
2017-09-01T09:28:46.969Z,5.75
2017-09-01T09:31:14.881Z,4.37
2017-09-01T09:33:42.448Z,6.97
2017-09-01T09:36:10.007Z,6.93
2017-09-01T09:38:37.613Z,6.07
2017-09-01T09:41:05.182Z,6.65
2017-09-01T09:43:32.787Z,6.25
2017-09-01T09:46:00.345Z,5.62
2017-09-01T09:48:28.390Z,8.73
2017-09-01T09:50:55.954Z,6.95
2017-09-01T09:53:23.532Z,5.57
2017-09-01T09:55:51.140Z,5.15
2017-09-01T09:58:19.508Z,4.63
2017-09-01T10:00:47.106Z,7.83
2017-09-01T10:03:14.676Z,6.90
2017-09-01T10:05:42.635Z,5.90
2017-09-01T10:08:10.203Z,5.43
2017-09-01T10:10:37.788Z,6.43
2017-09-01T10:13:05.376Z,4.30
2017-09-01T10:15:33.047Z,9.20
2017-09-01T10:18:00.648Z,4.80
2017-09-01T10:20:28.267Z,5.43
2017-09-01T10:22:56.153Z,6.17
2017-09-01T10:25:23.718Z,7.93
2017-09-01T10:27:51.320Z,5.87
2017-09-01T10:30:18.925Z,6.37
2017-09-01T10:32:46.499Z,6.03
2017-09-01T10:35:14.097Z,7.00
2017-09-01T10:37:41.686Z,5.90
2017-09-01T10:40:09.599Z,7.30
2017-09-01T10:42:37.170Z,6.37
2017-09-01T10:45:04.751Z,7.47
2017-09-01T10:47:44.247Z,5.60
2017-09-01T10:50:23.974Z,5.23
2017-09-01T10:53:03.376Z,5.60
2017-09-01T10:55:43.114Z,5.87
2017-09-01T10:58:10.670Z,6.20
2017-09-01T11:00:38.258Z,5.40
2017-09-01T11:03:05.854Z,5.20
2017-09-01T11:05:33.423Z,7.67
2017-09-01T11:08:00.995Z,3.57
2017-09-01T11:10:28.578Z,6.10
2017-09-01T11:12:56.465Z,5.13
2017-09-01T11:15:24.039Z,4.17
2017-09-01T11:17:51.613Z,6.63
2017-09-01T11:20:24.883Z,4.70
2017-09-01T11:22:58.055Z,10.90
2017-09-01T11:25:25.797Z,7.30
2017-09-01T11:27:53.392Z,5.23
2017-09-01T11:30:20.985Z,7.73
2017-09-01T11:32:48.571Z,4.30
2017-09-01T11:35:16.420Z,5.30
2017-09-01T11:37:43.998Z,4.60
2017-09-01T11:40:11.585Z,4.40
2017-09-01T11:42:39.196Z,4.80
2017-09-01T11:45:06.765Z,6.40
2017-09-01T11:47:34.477Z,3.10
2017-09-01T11:50:02.098Z,4.03
2017-09-01T11:52:30.886Z,2.50
2017-09-01T11:54:58.476Z,4.30
2017-09-01T11:57:26.028Z,5.00
2017-09-01T11:59:53.624Z,3.90
2017-09-01T12:02:21.214Z,6.83
2017-09-01T12:04:48.926Z,2.40
2017-09-01T12:07:16.498Z,5.53
2017-09-01T12:09:44.096Z,9.60
2017-09-01T12:12:11.712Z,3.80
2017-09-01T12:14:39.289Z,2.73
2017-09-01T12:17:07.152Z,6.20
2017-09-01T12:19:34.715Z,6.77
2017-09-01T12:22:02.388Z,3.53
2017-09-01T12:24:29.971Z,4.40
2017-09-01T12:26:57.559Z,8.17
2017-09-01T12:29:25.472Z,4.53
2017-09-01T12:31:53.040Z,3.00
2017-09-01T12:34:20.621Z,4.30
2017-09-01T12:36:48.219Z,6.07
2017-09-01T12:39:15.807Z,6.17
2017-09-01T12:41:43.837Z,5.47
2017-09-01T12:44:11.419Z,5.17
2017-09-01T12:46:39.776Z,4.40
2017-09-01T12:49:07.374Z,5.53
2017-09-01T12:51:34.956Z,4.00
2017-09-01T12:54:02.546Z,7.07
2017-09-01T12:56:30.211Z,6.00
2017-09-01T12:58:58.080Z,7.50
2017-09-01T13:01:25.663Z,4.10
2017-09-01T13:03:53.261Z,4.10
2017-09-01T13:06:20.832Z,5.70
2017-09-01T13:08:48.531Z,4.03
2017-09-01T13:11:16.418Z,6.40
2017-09-01T13:13:43.993Z,5.63
2017-09-01T13:16:11.570Z,4.03
2017-09-01T13:18:39.310Z,6.90
2017-09-01T13:21:06.884Z,25.33
2017-09-01T13:23:34.735Z,8.10
2017-09-01T13:26:02.316Z,5.67
2017-09-01T13:28:29.885Z,9.33
2017-09-01T13:30:58.271Z,5.17
2017-09-01T13:33:25.831Z,5.50
2017-09-01T13:35:53.428Z,6.07
2017-09-01T13:51:21.386Z,3.43
2017-09-01T13:53:48.971Z,4.27
2017-09-01T13:56:16.573Z,3.83
2017-09-01T13:58:44.940Z,12.90
2017-09-01T14:01:13.305Z,7.53
2017-09-01T14:03:40.897Z,6.00
2017-09-01T14:06:08.469Z,4.37
2017-09-01T14:08:36.384Z,4.33
2017-09-01T14:11:04.104Z,4.63
2017-09-01T14:13:31.706Z,3.10
2017-09-01T14:15:59.321Z,3.53
2017-09-01T14:18:26.892Z,3.90
2017-09-01T14:20:54.522Z,5.80
2017-09-01T14:23:22.101Z,3.67
2017-09-01T14:25:50.096Z,5.40
2017-09-01T14:28:17.669Z,5.10
2017-09-01T14:30:45.251Z,3.27
2017-09-01T14:33:12.865Z,3.87
2017-09-01T14:35:40.421Z,7.60
2017-09-01T14:38:08.041Z,6.53
2017-09-01T14:40:35.638Z,7.60
2017-09-01T14:43:03.222Z,9.33
2017-09-01T14:45:30.803Z,5.40
2017-09-01T14:47:58.422Z,4.50
2017-09-01T14:50:26.524Z,4.67
2017-09-01T14:52:54.086Z,7.60
2017-09-01T14:55:21.706Z,5.40
2017-09-01T14:57:49.300Z,5.67
2017-09-01T15:00:16.883Z,5.17
2017-09-01T15:02:45.705Z,3.50
2017-09-01T15:05:14.102Z,5.43
2017-09-01T15:07:41.697Z,9.20
2017-09-01T15:10:09.357Z,4.30
2017-09-01T15:12:36.957Z,3.30
2017-09-01T15:15:04.561Z,2.63
2017-09-01T15:17:32.094Z,8.73
2017-09-01T15:19:59.988Z,2.83
2017-09-01T15:22:27.602Z,5.83
2017-09-01T15:24:55.183Z,2.40
2017-09-01T15:27:22.754Z,3.87
2017-09-01T15:29:50.336Z,4.13
2017-09-01T15:32:17.943Z,3.57
2017-09-01T15:34:45.513Z,2.33
2017-09-01T15:37:13.412Z,2.83
2017-09-01T15:39:41.027Z,2.27
2017-09-01T15:42:08.592Z,2.83
2017-09-01T15:44:37.132Z,3.80
2017-09-01T15:47:04.734Z,3.70
2017-09-01T15:49:32.345Z,3.17
2017-09-01T15:51:59.914Z,3.00
2017-09-01T15:54:27.825Z,3.13
2017-09-01T15:56:55.417Z,3.60
2017-09-01T15:59:22.987Z,2.13
2017-09-01T16:01:51.064Z,3.40
2017-09-01T16:04:18.634Z,5.33
2017-09-01T16:06:46.242Z,2.40
2017-09-01T16:12:03.495Z,4.47
2017-09-01T16:14:31.075Z,4.60
2017-09-01T16:16:58.655Z,3.53
2017-09-01T16:19:26.267Z,3.80
2017-09-01T16:21:53.963Z,2.43
2017-09-01T16:24:21.568Z,3.43
2017-09-01T16:26:49.159Z,8.80
2017-09-01T16:29:17.777Z,5.83
2017-09-01T16:31:45.405Z,3.80
2017-09-01T16:34:13.004Z,5.10
2017-09-01T16:36:40.619Z,4.07
2017-09-01T16:39:08.195Z,5.03
2017-09-01T16:41:36.016Z,6.93
2017-09-01T16:44:03.594Z,4.63
2017-09-01T16:46:31.451Z,3.50
2017-09-01T16:48:59.056Z,2.50
2017-09-01T16:51:26.668Z,2.30
2017-09-01T16:53:55.174Z,4.07
2017-09-01T16:56:22.767Z,2.87
2017-09-01T16:58:50.382Z,3.97
2017-09-01T17:01:17.987Z,7.80
2017-09-01T17:03:45.929Z,3.30
2017-09-01T17:06:13.512Z,5.00
2017-09-01T17:08:41.108Z,5.93
2017-09-01T17:11:08.794Z,7.20
2017-09-01T17:13:36.386Z,5.97
2017-09-01T17:16:03.992Z,5.53
2017-09-01T17:18:32.438Z,9.33
2017-09-01T17:21:01.202Z,5.20
2017-09-01T17:23:28.829Z,2.63
2017-09-01T17:25:56.403Z,4.73
2017-09-01T17:28:24.005Z,6.37
2017-09-01T17:30:52.352Z,2.87
2017-09-01T17:33:19.934Z,4.53
2017-09-01T17:35:47.885Z,4.83
2017-09-01T17:38:15.768Z,4.43
2017-09-01T17:40:44.098Z,3.80
2017-09-01T17:43:12.688Z,5.90
2017-09-01T17:45:40.296Z,4.13
2017-09-01T17:48:07.908Z,3.77
2017-09-01T17:50:35.512Z,4.13
2017-09-01T17:53:03.104Z,4.40
2017-09-01T17:55:30.998Z,3.03
2017-09-01T17:57:58.591Z,3.03
2017-09-01T18:00:26.200Z,3.13
2017-09-01T18:02:54.601Z,2.10
2017-09-01T18:05:22.242Z,3.17
2017-09-01T18:07:49.892Z,5.30
2017-09-01T18:10:17.476Z,4.20
2017-09-01T18:12:52.775Z,3.17
2017-09-01T18:15:21.207Z,2.93
2017-09-01T18:17:56.589Z,5.00
2017-09-01T18:20:24.312Z,6.87
2017-09-01T18:22:51.976Z,7.30
2017-09-01T18:25:19.578Z,4.10
2017-09-01T18:27:48.775Z,2.57
2017-09-01T18:30:17.196Z,2.50
2017-09-01T18:32:45.921Z,2.70
2017-09-01T18:35:13.987Z,5.80
2017-09-01T18:37:41.586Z,3.40
2017-09-01T18:40:09.228Z,3.27
2017-09-01T18:42:37.628Z,3.83
2017-09-01T18:45:05.251Z,4.23
2017-09-01T18:47:32.886Z,4.07
2017-09-01T18:50:00.562Z,4.20
2017-09-01T18:52:28.583Z,3.40
2017-09-01T18:54:56.375Z,4.10
2017-09-01T18:57:23.978Z,4.90
2017-09-01T18:59:51.601Z,3.90
2017-09-01T19:02:19.210Z,3.77
2017-09-01T19:04:47.581Z,3.00
2017-09-01T19:07:15.199Z,3.27
2017-09-01T19:09:43.033Z,3.13
2017-09-01T19:12:10.637Z,4.23
2017-09-01T19:14:38.218Z,4.33
2017-09-01T19:17:05.815Z,3.60
2017-09-01T19:19:33.413Z,3.80
2017-09-01T19:22:01.042Z,4.03
2017-09-01T19:24:28.624Z,3.07
2017-09-01T19:26:56.480Z,8.23
2017-09-01T19:29:25.922Z,3.70
2017-09-01T19:31:53.523Z,2.80
2017-09-01T19:34:21.134Z,3.67
2017-09-01T19:36:48.730Z,3.50
2017-09-01T19:39:17.680Z,5.20
2017-09-01T19:41:46.587Z,6.93
2017-09-01T19:44:14.550Z,4.30
2017-09-01T19:46:42.127Z,4.00
2017-09-01T19:49:09.732Z,5.43
2017-09-01T19:51:37.326Z,4.30
2017-09-01T19:54:04.896Z,2.70
2017-09-01T19:56:32.503Z,3.90
2017-09-01T19:59:00.092Z,4.03
2017-09-01T20:01:27.953Z,3.23
2017-09-01T20:03:55.536Z,5.30
2017-09-01T20:06:23.127Z,5.27
2017-09-01T20:08:50.744Z,4.33
2017-09-01T20:11:18.331Z,3.47
2017-09-01T20:13:46.274Z,6.10
2017-09-01T20:16:14.639Z,3.60
2017-09-01T20:18:42.210Z,3.93
2017-09-01T20:21:09.805Z,3.20
2017-09-01T20:23:37.408Z,7.23
2017-09-01T20:26:05.011Z,4.40
2017-09-01T20:28:32.587Z,5.13
2017-09-01T20:31:00.531Z,4.07
2017-09-01T20:33:28.095Z,7.70
2017-09-01T20:35:55.669Z,3.53
2017-09-01T20:38:23.306Z,3.07
2017-09-01T20:40:50.907Z,7.03
2017-09-01T20:43:18.513Z,4.10
2017-09-01T20:45:46.106Z,4.70
2017-09-01T20:48:13.968Z,2.73
2017-09-01T20:50:41.622Z,4.50
2017-09-01T20:53:09.201Z,5.60
2017-09-01T20:55:37.181Z,4.87
2017-09-01T20:58:05.174Z,2.50
2017-09-01T21:00:33.213Z,4.00
2017-09-01T21:03:00.811Z,3.30
2017-09-01T21:05:28.706Z,8.30
2017-09-01T21:07:56.302Z,3.43
2017-09-01T21:10:23.887Z,4.10
2017-09-01T21:12:51.527Z,3.50
2017-09-01T21:15:19.109Z,4.63
2017-09-01T21:17:46.723Z,8.13
2017-09-01T21:20:14.332Z,4.40
2017-09-01T21:22:42.222Z,5.43
2017-09-01T21:25:09.805Z,4.57
2017-09-01T21:27:37.374Z,10.20
2017-09-01T21:30:04.966Z,3.17
2017-09-01T21:32:32.520Z,5.17
2017-09-01T21:35:00.133Z,4.07
2017-09-01T21:37:27.734Z,6.80
2017-09-01T21:39:55.875Z,3.50
2017-09-01T21:42:23.439Z,5.57
2017-09-01T21:44:51.010Z,3.40
2017-09-01T21:47:18.686Z,3.70
2017-09-01T21:49:46.291Z,5.10
2017-09-01T21:52:14.252Z,3.10
2017-09-01T21:54:41.815Z,3.17
2017-09-01T21:57:09.405Z,5.70
2017-09-01T21:59:37.036Z,3.60
2017-09-01T22:02:04.598Z,4.20
2017-09-01T22:04:32.175Z,4.60
2017-09-01T22:07:00.483Z,5.47
2017-09-01T22:09:28.090Z,4.90
2017-09-01T22:11:55.653Z,7.57
2017-09-01T22:14:23.531Z,6.87
2017-09-01T22:16:51.125Z,4.33
2017-09-01T22:19:18.717Z,5.07
2017-09-01T22:21:46.311Z,4.00
2017-09-01T22:24:13.907Z,7.60
2017-09-01T22:26:42.284Z,6.70
2017-09-01T22:29:10.630Z,5.87
2017-09-01T22:31:38.496Z,3.90
2017-09-01T22:34:06.054Z,3.10
2017-09-01T22:36:33.643Z,3.67
2017-09-01T22:39:01.991Z,5.20
2017-09-01T22:41:29.586Z,6.67
2017-09-01T22:43:57.577Z,5.67
2017-09-01T22:46:25.160Z,5.30
2017-09-01T22:48:52.726Z,3.07
2017-09-01T22:51:20.332Z,7.03
2017-09-01T22:53:47.927Z,9.00
2017-09-01T22:56:15.906Z,3.70
2017-09-01T22:58:43.472Z,3.70
2017-09-01T23:01:11.115Z,7.30
2017-09-01T23:03:38.702Z,4.10
2017-09-01T23:06:06.280Z,5.87
2017-09-01T23:08:33.891Z,7.53
2017-09-01T23:11:01.468Z,4.43
2017-09-01T23:13:29.314Z,4.10
2017-09-01T23:15:56.862Z,7.13
2017-09-01T23:18:24.448Z,4.30
2017-09-01T23:20:52.195Z,3.70
2017-09-01T23:23:19.759Z,8.10
2017-09-01T23:25:47.334Z,9.70
2017-09-01T23:28:14.902Z,4.03
2017-09-01T23:30:42.879Z,5.03
2017-09-01T23:33:10.447Z,6.60
2017-09-01T23:35:38.032Z,4.40
2017-09-01T23:38:06.397Z,5.20
2017-09-01T23:40:34.729Z,4.10
2017-09-01T23:43:02.354Z,5.10
2017-09-01T23:45:29.936Z,3.90
2017-09-01T23:47:57.803Z,4.83
2017-09-01T23:50:25.387Z,6.50
2017-09-01T23:52:52.979Z,6.03
2017-09-01T23:55:20.587Z,3.63
2017-09-01T23:57:48.150Z,5.90
